Clio, South Carolina
Current Conditions -  °F | °C
As of 7:15 AM on Friday 28 Nov 2014 (Local Time) from KBBP Reporting Station
Clear Clear  
Wind Chill: 24°   Ceiling: Unl
Heat Index: 30°   Visibility: 10mi
Dew Point: 30°   Wind: 6mph
Humidity: 100%   Direction: 330°NNW
Pressure: 30.36"   Gusts: NA
Location:  34.58°N, 79.55°W
Report Text: KBBP 281215Z AUTO 33005KT 10SM CLR M01/M01 A3036 RMK AO2
Loading
Personal Weather Stations






























Interactive Weather Map New forecast layout! Learn more

10-Day Weather Forecast

Advertisements
Track Severe Weather on mobile